Time;durP1;ratioP1;P1;durP2;ratioP2;P2;SDS_P1;SDS_P2;PMS_P1;PMS_P2;Temp;Humidity;BMP_temperature;BMP_pressure;BME280_temperature;BME280_humidity;BME280_pressure;Samples;Min_cycle;Max_cycle;Signal;HPM_P1;HPM_P2
2022/05/14 00:01:07;;;;;;;6.33;4.40;;;14.60;99.90;;;;;;5098771;28;20821;-71
2022/05/14 00:03:35;;;;;;;4.93;4.40;;;14.60;99.90;;;;;;5097924;28;20457;-72
2022/05/14 00:06:04;;;;;;;7.43;4.33;;;14.60;99.90;;;;;;5097958;28;20938;-72
2022/05/14 00:08:32;;;;;;;5.43;4.30;;;14.50;99.90;;;;;;5097677;28;20488;-72
2022/05/14 00:13:45;;;;;;;7.40;5.00;;;14.40;99.90;;;;;;5076689;28;20541;-70
2022/05/14 00:16:14;;;;;;;6.07;4.43;;;14.40;99.90;;;;;;5098259;28;20777;-71
2022/05/14 00:18:43;;;;;;;6.30;4.03;;;14.40;99.90;;;;;;5098284;28;20449;-72
2022/05/14 00:21:10;;;;;;;5.67;4.30;;;14.40;99.90;;;;;;5098030;28;20540;-71
2022/05/14 00:23:37;;;;;;;6.03;4.40;;;14.40;99.90;;;;;;5098096;28;20449;-72
2022/05/14 00:26:04;;;;;;;5.67;4.27;;;14.40;99.90;;;;;;5098478;28;20456;-71
2022/05/14 00:28:31;;;;;;;5.20;4.67;;;14.40;99.90;;;;;;5097752;28;20457;-72
2022/05/14 00:30:59;;;;;;;5.63;4.40;;;14.40;99.90;;;;;;5097854;28;20477;-71
2022/05/14 00:33:26;;;;;;;4.87;4.40;;;14.40;99.90;;;;;;5097842;28;20461;-71
2022/05/14 00:35:52;;;;;;;7.40;4.37;;;14.40;99.90;;;;;;5097748;28;20453;-71
2022/05/14 00:38:19;;;;;;;8.57;4.27;;;14.40;99.90;;;;;;5097458;28;20906;-70
2022/05/14 00:40:48;;;;;;;6.53;4.60;;;14.40;99.90;;;;;;5097400;28;20453;-71
2022/05/14 00:43:16;;;;;;;4.70;4.30;;;14.40;99.90;;;;;;5097565;28;20453;-71
2022/05/14 00:45:56;;;;;;;6.77;4.63;;;14.30;99.90;;;;;;5097563;28;20464;-71
2022/05/14 00:48:26;;;;;;;8.33;4.87;;;14.30;99.90;;;;;;5097484;28;20448;-71
2022/05/14 00:50:55;;;;;;;9.77;4.20;;;14.30;99.90;;;;;;5097506;28;20778;-71
2022/05/14 00:53:26;;;;;;;5.23;3.93;;;14.20;99.90;;;;;;5097450;28;20457;-71
2022/05/14 00:55:56;;;;;;;4.80;4.20;;;14.20;99.90;;;;;;5097282;28;20449;-71
2022/05/14 00:58:30;;;;;;;4.93;4.47;;;14.30;99.90;;;;;;5097045;28;20461;-71
2022/05/14 01:00:57;;;;;;;4.87;4.43;;;14.30;99.90;;;;;;5097090;28;20437;-71
2022/05/14 01:03:25;;;;;;;6.70;4.87;;;14.30;99.90;;;;;;5096642;28;20449;-71
2022/05/14 01:05:52;;;;;;;10.43;4.73;;;14.30;99.90;;;;;;5097072;28;20840;-71
2022/05/14 01:08:19;;;;;;;7.13;4.50;;;14.30;99.90;;;;;;5096912;28;20508;-71
2022/05/14 01:10:47;;;;;;;7.33;5.30;;;14.40;99.90;;;;;;5096263;28;20476;-71
2022/05/14 01:13:15;;;;;;;7.07;4.43;;;14.40;99.90;;;;;;5097493;28;20461;-71
2022/05/14 01:15:47;;;;;;;4.63;4.20;;;14.40;99.90;;;;;;5097164;28;20491;-71
2022/05/14 01:18:14;;;;;;;5.23;4.30;;;14.40;99.90;;;;;;5097106;28;20742;-71
2022/05/14 01:20:45;;;;;;;4.57;4.10;;;14.50;99.90;;;;;;5096910;28;20759;-71
2022/05/14 01:23:21;;;;;;;5.03;4.13;;;14.40;99.90;;;;;;5096936;28;20947;-71
2022/05/14 01:28:46;;;;;;;7.57;5.10;;;14.50;99.90;;;;;;5096812;28;20900;-72
2022/05/14 01:31:13;;;;;;;4.33;3.83;;;14.40;99.90;;;;;;5097667;28;20481;-71
2022/05/14 01:33:40;;;;;;;5.00;4.47;;;14.40;99.90;;;;;;5097580;28;20921;-72
2022/05/14 01:36:07;;;;;;;9.50;4.57;;;14.40;99.90;;;;;;5097716;28;20553;-70
2022/05/14 01:38:35;;;;;;;9.73;4.27;;;14.30;99.90;;;;;;5097423;28;20484;-71
2022/05/14 01:41:03;;;;;;;7.03;4.50;;;14.30;99.90;;;;;;5096820;28;20453;-72
2022/05/14 01:43:30;;;;;;;5.10;4.60;;;14.30;99.90;;;;;;5096985;28;20840;-71
2022/05/14 01:45:57;;;;;;;10.63;4.70;;;14.30;99.90;;;;;;5096665;28;20456;-71
2022/05/14 01:48:24;;;;;;;6.63;4.87;;;14.30;99.90;;;;;;5096367;28;20474;-71
2022/05/14 01:50:51;;;;;;;6.53;4.57;;;14.30;99.90;;;;;;5096288;28;20484;-72
2022/05/14 01:53:17;;;;;;;6.70;4.77;;;14.30;99.90;;;;;;5096110;28;20790;-71
2022/05/14 01:55:44;;;;;;;5.20;4.17;;;14.30;99.90;;;;;;5096379;28;20487;-72
2022/05/14 02:00:56;;;;;;;7.93;4.63;;;14.30;99.90;;;;;;5095962;28;20428;-72
2022/05/14 02:03:23;;;;;;;6.00;4.67;;;14.30;99.90;;;;;;5096298;28;20464;-72
2022/05/14 02:05:50;;;;;;;6.63;4.70;;;14.20;99.90;;;;;;5095632;28;20468;-72
2022/05/14 02:08:17;;;;;;;5.40;4.90;;;14.20;99.90;;;;;;5095397;28;20476;-72
2022/05/14 02:10:43;;;;;;;7.00;4.90;;;14.20;99.90;;;;;;5095909;28;20484;-72
2022/05/14 02:13:12;;;;;;;8.80;5.03;;;14.20;99.90;;;;;;5095963;28;20461;-72
2022/05/14 02:15:39;;;;;;;5.20;4.30;;;14.10;99.90;;;;;;5095982;28;20480;-72
2022/05/14 02:18:06;;;;;;;5.33;4.83;;;14.10;99.90;;;;;;5095382;28;20510;-70
2022/05/14 02:20:33;;;;;;;4.97;4.27;;;14.10;99.90;;;;;;5095167;28;20454;-71
2022/05/14 02:23:00;;;;;;;8.57;5.57;;;14.10;99.90;;;;;;5095219;28;20518;-70
2022/05/14 02:25:26;;;;;;;9.10;4.93;;;14.10;99.90;;;;;;5095496;28;20940;-70
2022/05/14 02:27:53;;;;;;;6.73;4.23;;;14.00;99.90;;;;;;5095094;28;20897;-72
2022/05/14 02:30:21;;;;;;;5.50;4.47;;;14.00;99.90;;;;;;5095336;28;20899;-71
2022/05/14 02:32:48;;;;;;;6.97;4.67;;;14.00;99.90;;;;;;5095576;28;20510;-72
2022/05/14 02:35:14;;;;;;;7.57;5.30;;;13.90;99.90;;;;;;5095386;28;20457;-71
2022/05/14 02:37:41;;;;;;;8.27;4.70;;;14.00;99.90;;;;;;5095520;28;20813;-71
2022/05/14 02:40:08;;;;;;;6.10;4.37;;;14.00;99.90;;;;;;5096127;28;20829;-71
2022/05/14 02:42:35;;;;;;;6.13;4.83;;;13.90;99.90;;;;;;5096152;28;20453;-71
2022/05/14 02:45:02;;;;;;;7.30;3.90;;;13.90;99.90;;;;;;5096230;28;20518;-72
2022/05/14 02:47:30;;;;;;;5.47;4.50;;;13.90;99.90;;;;;;5095614;28;20468;-71
2022/05/14 02:49:57;;;;;;;5.87;4.13;;;13.90;99.90;;;;;;5095161;28;20485;-71
2022/05/14 02:52:24;;;;;;;5.30;3.77;;;14.00;99.90;;;;;;5095304;28;20535;-72
2022/05/14 02:54:51;;;;;;;6.83;3.70;;;14.00;99.90;;;;;;5095197;28;20461;-72
2022/05/14 02:57:18;;;;;;;8.50;4.63;;;14.00;99.90;;;;;;5094772;28;20453;-72
2022/05/14 02:59:45;;;;;;;4.30;3.90;;;14.00;99.90;;;;;;5095349;28;20465;-70
2022/05/14 03:02:12;;;;;;;5.20;3.67;;;14.00;99.90;;;;;;5095103;28;20802;-71
2022/05/14 03:04:44;;;;;;;7.83;4.20;;;14.00;99.90;;;;;;5094611;28;20453;-71
2022/05/14 03:07:12;;;;;;;12.20;4.07;;;14.00;99.90;;;;;;5094645;28;20485;-73
2022/05/14 03:09:40;;;;;;;7.97;4.00;;;14.00;99.90;;;;;;5095737;28;20768;-70
2022/05/14 03:12:08;;;;;;;6.93;4.47;;;13.90;99.90;;;;;;5094338;28;20481;-71
2022/05/14 03:14:35;;;;;;;5.13;3.73;;;13.90;99.90;;;;;;5094708;28;20449;-71
2022/05/14 03:17:02;;;;;;;8.77;3.97;;;13.80;99.90;;;;;;5095277;28;20786;-71
2022/05/14 03:19:29;;;;;;;9.10;4.27;;;13.80;99.90;;;;;;5094890;28;20804;-71
2022/05/14 03:21:57;;;;;;;4.90;4.37;;;13.80;99.90;;;;;;5094554;28;20453;-71
2022/05/14 03:24:24;;;;;;;6.20;4.03;;;13.80;99.90;;;;;;5094503;28;20460;-71
2022/05/14 03:26:51;;;;;;;7.57;5.07;;;13.70;99.90;;;;;;5094811;28;20803;-71
2022/05/14 03:29:18;;;;;;;8.03;4.70;;;13.70;99.90;;;;;;5094682;28;20461;-70
2022/05/14 03:31:45;;;;;;;8.43;5.37;;;13.60;99.90;;;;;;5094499;28;20605;-71
2022/05/14 03:34:12;;;;;;;9.77;4.90;;;13.60;99.90;;;;;;5093803;28;20457;-70
2022/05/14 03:36:39;;;;;;;7.50;4.63;;;13.60;99.90;;;;;;5094588;28;20454;-71
2022/05/14 03:39:07;;;;;;;6.43;4.27;;;13.60;99.90;;;;;;5094531;28;20493;-71
2022/05/14 03:41:34;;;;;;;8.30;5.60;;;13.50;99.90;;;;;;5094771;28;20481;-70
2022/05/14 03:44:02;;;;;;;5.07;4.33;;;13.50;99.90;;;;;;5095007;28;20745;-71
2022/05/14 03:46:29;;;;;;;8.57;4.30;;;13.50;99.90;;;;;;5094552;28;20449;-71
2022/05/14 03:48:55;;;;;;;6.17;4.20;;;13.50;99.90;;;;;;5094457;28;20597;-71
2022/05/14 03:51:22;;;;;;;10.57;4.57;;;13.50;99.90;;;;;;5094567;28;20464;-71
2022/05/14 03:53:49;;;;;;;6.67;4.70;;;13.40;99.90;;;;;;5094532;28;20468;-71
2022/05/14 03:56:17;;;;;;;7.60;4.40;;;13.50;99.90;;;;;;5094562;28;20523;-70
2022/05/14 03:58:44;;;;;;;5.90;4.23;;;13.40;99.90;;;;;;5094507;28;20563;-71
2022/05/14 04:01:11;;;;;;;5.70;4.70;;;13.40;99.90;;;;;;5094037;28;20464;-70
2022/05/14 04:03:38;;;;;;;7.37;4.50;;;13.40;99.90;;;;;;5093860;28;20518;-71
2022/05/14 04:06:05;;;;;;;8.13;4.50;;;13.40;99.90;;;;;;5094379;28;20457;-70
2022/05/14 04:08:32;;;;;;;10.20;4.63;;;13.40;99.90;;;;;;5094188;28;20971;-71
2022/05/14 04:10:59;;;;;;;9.67;4.80;;;13.40;99.90;;;;;;5093983;28;20522;-71
2022/05/14 04:13:28;;;;;;;7.47;4.83;;;13.40;99.90;;;;;;5093729;28;20477;-71
2022/05/14 04:15:54;;;;;;;9.23;5.10;;;13.50;99.90;;;;;;5094262;28;20510;-70
2022/05/14 04:18:24;;;;;;;11.60;4.97;;;13.50;99.90;;;;;;5094368;28;20863;-70
2022/05/14 04:20:53;;;;;;;9.23;5.20;;;13.50;99.90;;;;;;5094002;28;20994;-71
2022/05/14 04:23:20;;;;;;;7.90;5.00;;;13.50;99.90;;;;;;5093866;28;20468;-70
2022/05/14 04:25:49;;;;;;;16.17;4.60;;;13.50;99.90;;;;;;5094412;28;20471;-71
2022/05/14 04:28:15;;;;;;;11.30;4.93;;;13.50;99.90;;;;;;5094051;28;20458;-71
2022/05/14 04:30:44;;;;;;;5.60;4.13;;;13.60;99.90;;;;;;5094094;28;20461;-70
2022/05/14 04:33:11;;;;;;;7.83;4.43;;;13.60;99.90;;;;;;5094046;28;20477;-70
2022/05/14 04:35:37;;;;;;;9.23;4.67;;;13.60;99.90;;;;;;5094008;28;20782;-71
2022/05/14 04:38:04;;;;;;;5.10;4.03;;;13.60;99.90;;;;;;5093907;28;20456;-70
2022/05/14 04:40:31;;;;;;;5.70;4.60;;;13.60;99.90;;;;;;5093770;28;20476;-70
2022/05/14 04:42:58;;;;;;;9.33;4.30;;;13.60;99.90;;;;;;5093548;28;20483;-70
2022/05/14 04:45:24;;;;;;;5.80;4.70;;;13.60;99.90;;;;;;5096627;28;20449;-70
2022/05/14 04:47:53;;;;;;;8.20;4.13;;;13.60;99.90;;;;;;5098040;28;20534;-70
2022/05/14 04:50:19;;;;;;;8.70;4.50;;;13.70;99.90;;;;;;5097399;28;20467;-70
2022/05/14 04:52:46;;;;;;;5.93;4.10;;;13.70;99.90;;;;;;5097206;28;20472;-70
2022/05/14 04:55:14;;;;;;;8.87;4.57;;;13.70;99.90;;;;;;5097188;28;20918;-71
2022/05/14 04:57:43;;;;;;;8.40;4.23;;;13.70;99.90;;;;;;5097574;28;20461;-71
2022/05/14 05:00:13;;;;;;;4.90;4.37;;;13.80;99.90;;;;;;5097296;28;20795;-71
2022/05/14 05:05:25;;;;;;;7.40;3.83;;;13.80;99.90;;;;;;5097341;28;20421;-71
2022/05/14 05:07:52;;;;;;;5.50;3.77;;;13.80;99.90;;;;;;5097001;28;20493;-71
2022/05/14 05:10:19;;;;;;;6.43;4.23;;;13.80;99.90;;;;;;5097251;28;20787;-71
2022/05/14 05:12:46;;;;;;;7.93;3.97;;;13.80;99.90;;;;;;5097380;28;20488;-71
2022/05/14 05:15:13;;;;;;;5.70;4.53;;;13.90;99.90;;;;;;5097346;28;20457;-72
2022/05/14 05:17:41;;;;;;;8.60;4.90;;;13.90;99.90;;;;;;5097137;28;20465;-71
2022/05/14 05:20:09;;;;;;;12.90;5.07;;;13.90;99.90;;;;;;5097190;28;20470;-71
2022/05/14 05:22:38;;;;;;;7.10;4.43;;;13.90;99.90;;;;;;5097148;28;20536;-71
2022/05/14 05:25:06;;;;;;;8.07;3.87;;;14.00;99.90;;;;;;5096973;28;20463;-71
2022/05/14 05:27:36;;;;;;;9.27;5.33;;;14.00;99.90;;;;;;5097067;28;20457;-71
2022/05/14 05:30:03;;;;;;;5.87;4.17;;;14.10;99.90;;;;;;5096694;28;20549;-71
2022/05/14 05:32:30;;;;;;;7.93;4.40;;;14.10;99.90;;;;;;5096388;28;20524;-71
2022/05/14 05:34:57;;;;;;;5.13;3.53;;;14.20;99.90;;;;;;5096687;28;20826;-71
2022/05/14 05:37:24;;;;;;;8.57;4.13;;;14.20;99.90;;;;;;5096846;28;20484;-71
2022/05/14 05:39:52;;;;;;;6.10;4.40;;;14.30;99.90;;;;;;5096623;28;20457;-71
2022/05/14 05:42:18;;;;;;;10.30;4.73;;;14.40;99.90;;;;;;5096319;28;20453;-71
2022/05/14 05:44:45;;;;;;;10.50;3.87;;;14.40;99.90;;;;;;5096617;28;20515;-71
2022/05/14 05:47:12;;;;;;;9.13;4.13;;;14.40;99.90;;;;;;5096661;28;20530;-71
2022/05/14 05:49:40;;;;;;;5.30;3.70;;;14.40;99.90;;;;;;5096794;28;20453;-71
2022/05/14 05:52:07;;;;;;;8.53;3.97;;;14.40;99.90;;;;;;5096226;28;20992;-71
2022/05/14 05:57:19;;;;;;;9.53;3.83;;;14.50;99.90;;;;;;5095558;28;20516;-71
2022/05/14 05:59:47;;;;;;;3.97;3.20;;;14.50;99.90;;;;;;5097456;28;20468;-70
2022/05/14 06:02:13;;;;;;;9.83;3.67;;;14.60;99.90;;;;;;5097236;28;20957;-71
2022/05/14 06:04:40;;;;;;;6.80;3.70;;;14.70;99.90;;;;;;5097185;28;20464;-72
2022/05/14 06:07:07;;;;;;;11.83;3.73;;;14.80;99.90;;;;;;5096754;28;20477;-71
2022/05/14 06:09:34;;;;;;;7.90;3.60;;;14.90;99.90;;;;;;5096292;28;20440;-72
2022/05/14 06:12:01;;;;;;;8.67;3.83;;;15.00;99.90;;;;;;5096501;28;20526;-71
2022/05/14 06:14:29;;;;;;;8.60;3.60;;;15.10;99.90;;;;;;5096953;28;20561;-71
2022/05/14 06:16:56;;;;;;;9.03;3.70;;;15.10;99.90;;;;;;5096049;28;20466;-71
2022/05/14 06:19:23;;;;;;;4.70;3.57;;;15.20;99.90;;;;;;5095845;28;20914;-71
2022/05/14 06:21:49;;;;;;;6.47;3.10;;;15.10;99.90;;;;;;5095610;28;20902;-71
2022/05/14 06:24:16;;;;;;;12.27;3.80;;;15.20;99.90;;;;;;5095840;28;20506;-71
2022/05/14 06:26:43;;;;;;;6.97;3.87;;;15.10;99.90;;;;;;5095474;28;20921;-71
2022/05/14 06:29:10;;;;;;;5.33;3.60;;;15.10;99.90;;;;;;5095815;28;20460;-71
2022/05/14 06:31:38;;;;;;;7.83;3.20;;;15.10;99.90;;;;;;5095894;28;20460;-71
2022/05/14 06:34:06;;;;;;;5.13;3.23;;;15.00;99.90;;;;;;5095463;28;20527;-70
2022/05/14 06:36:33;;;;;;;5.60;3.33;;;15.00;99.90;;;;;;5095525;28;20546;-70
2022/05/14 06:39:00;;;;;;;8.97;3.93;;;15.10;99.90;;;;;;5095775;28;20572;-71
2022/05/14 06:41:27;;;;;;;10.17;3.60;;;15.20;99.90;;;;;;5095332;28;20465;-71
2022/05/14 06:43:53;;;;;;;7.57;3.43;;;15.30;99.90;;;;;;5095437;28;20511;-71
2022/05/14 06:46:20;;;;;;;5.53;3.43;;;15.30;99.90;;;;;;5095267;28;20453;-70
2022/05/14 06:48:48;;;;;;;6.93;3.03;;;15.30;99.90;;;;;;5095250;28;20449;-70
2022/05/14 06:51:18;;;;;;;10.50;3.20;;;15.30;99.90;;;;;;5095488;28;20465;-71
2022/05/14 06:53:44;;;;;;;8.67;4.37;;;15.40;99.90;;;;;;5094870;28;20538;-71
2022/05/14 06:56:14;;;;;;;8.53;3.37;;;15.40;99.90;;;;;;5095062;28;20491;-71
2022/05/14 06:58:42;;;;;;;8.73;3.70;;;15.50;99.90;;;;;;5095368;28;20454;-70
2022/05/14 07:01:10;;;;;;;8.50;3.43;;;15.50;99.90;;;;;;5094822;28;20918;-71
2022/05/14 07:06:41;;;;;;;5.60;3.50;;;15.60;99.90;;;;;;5094816;28;20425;-71
2022/05/14 07:09:11;;;;;;;10.00;3.97;;;15.70;99.90;;;;;;5095743;28;20460;-72
2022/05/14 07:11:41;;;;;;;4.10;3.27;;;15.70;99.90;;;;;;5095187;28;20460;-72
2022/05/14 07:14:08;;;;;;;5.77;3.43;;;15.70;99.90;;;;;;5094854;28;20511;-71
2022/05/14 07:16:35;;;;;;;8.63;3.67;;;15.80;99.90;;;;;;5094973;28;20464;-71
2022/05/14 07:19:05;;;;;;;6.90;3.27;;;15.80;99.90;;;;;;5095206;28;20487;-72
2022/05/14 07:21:34;;;;;;;9.10;3.67;;;15.90;99.90;;;;;;5095148;28;20465;-72
2022/05/14 07:24:03;;;;;;;9.33;3.90;;;15.90;99.90;;;;;;5095126;28;20814;-71
2022/05/14 07:26:30;;;;;;;6.57;3.60;;;15.90;99.90;;;;;;5094832;28;20457;-71
2022/05/14 07:28:56;;;;;;;9.30;3.80;;;15.90;99.90;;;;;;5094507;28;20468;-72
2022/05/14 07:31:23;;;;;;;14.77;3.57;;;16.00;99.90;;;;;;5094685;28;20805;-72
2022/05/14 07:33:51;;;;;;;10.83;4.90;;;16.10;99.90;;;;;;5094374;28;20988;-72
2022/05/14 07:36:22;;;;;;;11.93;3.80;;;16.20;99.90;;;;;;5094127;28;20464;-72
2022/05/14 07:38:50;;;;;;;5.63;3.40;;;16.30;99.90;;;;;;5094660;28;20792;-72
2022/05/14 07:41:17;;;;;;;11.20;4.20;;;16.30;99.90;;;;;;5094115;28;20461;-71
2022/05/14 07:43:46;;;;;;;9.50;3.73;;;16.30;99.90;;;;;;5094284;28;20491;-72
2022/05/14 07:46:17;;;;;;;8.00;3.90;;;16.30;99.90;;;;;;5094606;28;20499;-72
2022/05/14 07:48:45;;;;;;;7.37;3.70;;;16.30;99.90;;;;;;5094273;28;20437;-72
2022/05/14 07:51:12;;;;;;;6.50;3.97;;;16.30;99.90;;;;;;5093858;28;20920;-72
2022/05/14 07:53:39;;;;;;;10.90;4.20;;;16.40;99.90;;;;;;5094230;28;20478;-72
2022/05/14 07:56:09;;;;;;;8.70;3.60;;;16.50;99.90;;;;;;5094303;28;20453;-71
2022/05/14 07:58:36;;;;;;;9.80;4.50;;;16.50;99.90;;;;;;5094049;28;20501;-72
2022/05/14 08:01:03;;;;;;;5.00;3.17;;;16.60;99.90;;;;;;5094190;28;20820;-72
2022/05/14 08:03:29;;;;;;;8.83;3.93;;;16.60;99.90;;;;;;5094339;28;20522;-70
2022/05/14 08:05:56;;;;;;;11.90;4.10;;;16.70;99.90;;;;;;5094226;28;20589;-72
2022/05/14 08:08:24;;;;;;;8.00;3.67;;;16.70;99.90;;;;;;5094038;28;20478;-71
2022/05/14 08:10:51;;;;;;;15.23;4.03;;;16.60;99.90;;;;;;5094034;28;20921;-73
2022/05/14 08:13:20;;;;;;;9.70;4.30;;;16.60;99.90;;;;;;5093626;28;20500;-71
2022/05/14 08:15:48;;;;;;;13.70;3.50;;;16.60;99.90;;;;;;5094434;28;20454;-71
2022/05/14 08:18:16;;;;;;;7.60;3.50;;;16.70;99.90;;;;;;5094323;28;20457;-71
2022/05/14 08:20:43;;;;;;;6.30;3.77;;;16.70;99.90;;;;;;5097862;28;20770;-71
2022/05/14 08:25:57;;;;;;;7.60;3.50;;;17.00;99.90;;;;;;5098028;28;20928;-70
2022/05/14 08:28:25;;;;;;;6.60;3.37;;;17.00;99.90;;;;;;5098319;28;20461;-73
2022/05/14 08:30:52;;;;;;;6.80;3.80;;;17.10;99.90;;;;;;5097690;28;20610;-72
2022/05/14 08:33:19;;;;;;;7.47;3.80;;;17.20;99.90;;;;;;5098128;28;20485;-72
2022/05/14 08:35:46;;;;;;;6.43;3.53;;;17.30;99.90;;;;;;5097623;28;20485;-72
2022/05/14 08:38:15;;;;;;;7.30;3.83;;;17.30;99.90;;;;;;5097829;28;20457;-72
2022/05/14 08:40:43;;;;;;;6.90;3.70;;;17.40;99.90;;;;;;5097955;28;20457;-72
2022/05/14 08:43:14;;;;;;;6.50;3.53;;;17.50;99.90;;;;;;5097746;28;20526;-73
2022/05/14 08:45:42;;;;;;;8.67;3.80;;;17.60;99.90;;;;;;5097803;28;20499;-71
2022/05/14 08:48:15;;;;;;;8.70;3.60;;;17.60;99.90;;;;;;5097744;28;20504;-71
2022/05/14 08:50:42;;;;;;;6.07;3.27;;;17.60;99.90;;;;;;5097381;28;20842;-71
2022/05/14 08:53:12;;;;;;;5.40;3.10;;;17.70;99.90;;;;;;5097550;28;20481;-71
2022/05/14 08:55:43;;;;;;;6.53;3.30;;;17.80;99.90;;;;;;5097345;28;20939;-71
2022/05/14 08:58:18;;;;;;;8.70;3.10;;;17.90;99.90;;;;;;5097154;28;20529;-72
2022/05/14 09:00:46;;;;;;;8.60;3.53;;;18.00;99.90;;;;;;5097378;28;20935;-72
2022/05/14 09:03:13;;;;;;;7.10;3.47;;;18.00;99.90;;;;;;5097176;28;20453;-71
2022/05/14 09:05:39;;;;;;;7.97;3.10;;;18.00;99.90;;;;;;5097145;28;20532;-71
2022/05/14 09:08:07;;;;;;;9.10;3.43;;;18.00;99.90;;;;;;5096846;28;20481;-71
2022/05/14 09:10:36;;;;;;;12.17;4.13;;;18.10;99.90;;;;;;5097107;28;20460;-71
2022/05/14 09:13:11;;;;;;;5.60;2.83;;;18.20;99.90;;;;;;5097135;28;20467;-71
2022/05/14 09:15:46;;;;;;;6.50;3.57;;;18.20;99.90;;;;;;5097323;28;20807;-73
2022/05/14 09:18:19;;;;;;;10.00;3.60;;;18.20;99.90;;;;;;5096911;28;20965;-72
2022/05/14 09:20:49;;;;;;;8.00;3.40;;;18.00;99.90;;;;;;5096924;28;20450;-72
2022/05/14 09:23:29;;;;;;;11.07;3.90;;;18.10;99.90;;;;;;5096963;28;20453;-72
2022/05/14 09:25:58;;;;;;;11.40;3.53;;;18.10;99.90;;;;;;5097141;28;20841;-72
2022/05/14 09:28:39;;;;;;;9.03;2.90;;;18.10;99.90;;;;;;5097025;28;20464;-72
2022/05/14 09:31:07;;;;;;;6.87;3.70;;;18.10;99.90;;;;;;5096843;28;20441;-71
2022/05/14 09:33:40;;;;;;;13.13;3.13;;;18.20;99.90;;;;;;5096562;28;20852;-72
2022/05/14 09:36:15;;;;;;;7.80;3.10;;;18.30;99.90;;;;;;5096581;28;20536;-72
2022/05/14 09:38:43;;;;;;;7.33;3.03;;;18.40;99.90;;;;;;5096610;28;20520;-72
2022/05/14 09:41:12;;;;;;;7.80;3.17;;;18.60;99.90;;;;;;5096864;28;20457;-71
2022/05/14 09:43:40;;;;;;;12.60;7.50;;;18.70;99.90;;;;;;5096553;28;20449;-71
2022/05/14 09:46:10;;;;;;;10.37;3.27;;;18.80;99.90;;;;;;5096320;28;20457;-71
2022/05/14 09:48:47;;;;;;;8.30;2.77;;;18.80;99.90;;;;;;5096442;28;20453;-71
2022/05/14 09:51:26;;;;;;;8.10;3.20;;;18.80;99.90;;;;;;5096359;28;20442;-71
2022/05/14 09:53:54;;;;;;;5.97;2.67;;;18.80;99.90;;;;;;5095943;28;20957;-72
2022/05/14 09:56:46;;;;;;;11.53;2.90;;;18.80;99.90;;;;;;5095824;28;20910;-72
2022/05/14 09:59:33;;;;;;;8.90;2.53;;;18.80;99.90;;;;;;5096133;28;20449;-72
2022/05/14 10:02:07;;;;;;;6.73;2.50;;;18.90;99.90;;;;;;5096424;28;20456;-72
2022/05/14 10:05:02;;;;;;;8.00;2.90;;;19.00;99.90;;;;;;5096228;28;20501;-72
2022/05/14 10:07:34;;;;;;;8.00;2.93;;;19.20;99.90;;;;;;5095595;28;20550;-72
2022/05/14 10:10:14;;;;;;;7.13;2.90;;;19.30;99.90;;;;;;5096042;28;20471;-72
2022/05/14 10:12:45;;;;;;;10.20;3.43;;;19.40;99.90;;;;;;5096328;28;20475;-72
2022/05/14 10:15:27;;;;;;;13.70;2.70;;;19.40;99.90;;;;;;5095695;28;20572;-72
2022/05/14 10:18:02;;;;;;;5.23;3.03;;;19.30;99.90;;;;;;5096027;28;20446;-72
2022/05/14 10:20:41;;;;;;;8.03;3.00;;;19.20;99.90;;;;;;5095799;28;20448;-72
2022/05/14 10:26:45;;;;;;;5.47;2.90;;;19.10;99.90;;;;;;5092856;28;20441;-75
2022/05/14 10:29:27;;;;;;;7.03;3.10;;;19.10;99.90;;;;;;5095528;28;20442;-75
2022/05/14 10:32:00;;;;;;;9.90;3.20;;;19.20;99.90;;;;;;5095908;28;20445;-75
2022/05/14 10:34:39;;;;;;;6.37;2.70;;;19.20;99.90;;;;;;5096547;28;20469;-73
2022/05/14 10:37:14;;;;;;;5.90;2.60;;;19.20;99.90;;;;;;5096679;28;20767;-75
2022/05/14 10:39:45;;;;;;;4.67;2.50;;;19.20;99.90;;;;;;5096094;28;20782;-71
2022/05/14 10:42:20;;;;;;;8.13;3.10;;;19.30;99.90;;;;;;5094893;28;20692;-73
2022/05/14 10:44:52;;;;;;;8.73;2.93;;;19.50;99.90;;;;;;5095491;28;20441;-74
2022/05/14 10:47:20;;;;;;;7.27;2.50;;;19.60;99.90;;;;;;5095565;28;20875;-73
2022/05/14 10:49:53;;;;;;;7.73;2.70;;;19.70;99.90;;;;;;5095442;28;20843;-74
2022/05/14 10:52:22;;;;;;;8.17;3.00;;;19.80;99.90;;;;;;5095331;28;20452;-73
2022/05/14 10:54:49;;;;;;;9.07;3.43;;;19.90;99.90;;;;;;5095151;28;20477;-74
2022/05/14 10:57:40;;;;;;;7.13;3.23;;;19.90;99.90;;;;;;5095799;28;20928;-74
2022/05/14 11:00:31;;;;;;;9.87;3.30;;;19.90;99.90;;;;;;5095206;28;20453;-73
2022/05/14 11:03:02;;;;;;;5.63;2.90;;;20.00;99.90;;;;;;5095490;28;20441;-73
2022/05/14 11:05:31;;;;;;;11.73;2.50;;;19.80;99.90;;;;;;5095610;28;20438;-72
2022/05/14 11:08:09;;;;;;;8.80;3.33;;;19.80;99.90;;;;;;5094920;28;20489;-74
2022/05/14 11:10:37;;;;;;;6.90;2.60;;;19.70;99.90;;;;;;5095156;28;20437;-74
2022/05/14 11:13:12;;;;;;;9.20;3.27;;;19.90;99.90;;;;;;5095297;28;20468;-72
2022/05/14 11:15:39;;;;;;;5.33;2.63;;;20.10;99.90;;;;;;5095054;28;20941;-72
2022/05/14 11:18:09;;;;;;;5.50;2.77;;;20.40;99.90;;;;;;5094978;28;20468;-71
2022/05/14 11:20:36;;;;;;;6.20;2.80;;;20.40;99.90;;;;;;5095012;28;20468;-74
2022/05/14 11:23:10;;;;;;;9.30;3.17;;;20.40;99.90;;;;;;5095451;28;20530;-72
2022/05/14 11:25:38;;;;;;;14.47;3.97;;;20.50;99.90;;;;;;5094864;28;20456;-73
2022/05/14 11:28:08;;;;;;;9.17;3.10;;;20.40;99.90;;;;;;5094485;28;20945;-73
2022/05/14 11:30:38;;;;;;;11.70;3.50;;;20.10;99.90;;;;;;5095019;28;20480;-72
2022/05/14 11:33:18;;;;;;;8.90;2.97;;;19.90;99.90;;;;;;5094969;28;20780;-71
2022/05/14 11:35:47;;;;;;;8.80;3.03;;;20.00;99.90;;;;;;5094856;28;20571;-73
2022/05/14 11:38:32;;;;;;;5.60;3.10;;;20.00;99.90;;;;;;5095178;28;20946;-73
2022/05/14 11:41:03;;;;;;;8.13;2.90;;;20.10;99.90;;;;;;5094604;28;20467;-74
2022/05/14 11:43:32;;;;;;;7.00;2.90;;;20.00;99.90;;;;;;5094658;28;20441;-74
2022/05/14 11:46:25;;;;;;;9.83;3.50;;;20.10;99.90;;;;;;5094691;28;20457;-74
2022/05/14 11:48:56;;;;;;;7.83;3.03;;;20.50;99.90;;;;;;5095077;28;20438;-76
2022/05/14 11:51:32;;;;;;;7.47;3.23;;;20.80;99.90;;;;;;5094429;28;20785;-74
2022/05/14 11:54:06;;;;;;;7.23;2.83;;;21.00;99.90;;;;;;5095300;28;20469;-74
2022/05/14 11:56:36;;;;;;;5.40;3.20;;;21.00;99.90;;;;;;5098565;28;20963;-75
2022/05/14 11:59:08;;;;;;;9.60;2.80;;;21.10;99.90;;;;;;5099218;28;20446;-75
2022/05/14 12:01:39;;;;;;;10.53;3.03;;;21.10;99.90;;;;;;5099095;28;20433;-74
2022/05/14 12:04:14;;;;;;;8.87;3.10;;;21.10;99.90;;;;;;5098796;28;20498;-75
2022/05/14 12:07:02;;;;;;;15.57;3.00;;;20.80;99.90;;;;;;5098522;28;20437;-75
2022/05/14 12:09:46;;;;;;;7.97;3.03;;;20.50;99.90;;;;;;5097942;28;20438;-75
2022/05/14 12:12:18;;;;;;;6.50;3.43;;;20.60;99.90;;;;;;5098224;28;20442;-75
2022/05/14 12:14:45;;;;;;;7.90;2.87;;;20.70;99.90;;;;;;5097924;28;20472;-76
2022/05/14 12:17:16;;;;;;;9.53;3.53;;;20.60;99.90;;;;;;5098178;28;20457;-75
2022/05/14 12:19:44;;;;;;;10.40;3.63;;;20.60;99.90;;;;;;5097911;28;20532;-76
2022/05/14 12:22:19;;;;;;;7.17;3.10;;;20.40;99.90;;;;;;5098200;28;20595;-76
2022/05/14 12:24:56;;;;;;;7.03;3.00;;;20.40;99.90;;;;;;5098002;28;20444;-76
2022/05/14 12:27:23;;;;;;;7.70;3.70;;;20.30;99.90;;;;;;5098171;28;20484;-75
2022/05/14 12:29:55;;;;;;;7.03;3.57;;;20.40;99.90;;;;;;5097766;28;20458;-76
2022/05/14 12:35:16;;;;;;;13.00;3.40;;;20.40;99.90;;;;;;5097346;28;20460;-76
2022/05/14 12:37:43;;;;;;;6.60;2.90;;;20.70;99.90;;;;;;5097749;28;20464;-75
2022/05/14 12:40:20;;;;;;;12.37;4.60;;;20.90;99.90;;;;;;5097913;28;20829;-74
2022/05/14 12:42:47;;;;;;;8.73;2.80;;;20.90;99.90;;;;;;5097899;28;20441;-74
2022/05/14 12:45:14;;;;;;;9.63;3.40;;;21.10;99.90;;;;;;5097504;28;20456;-75
2022/05/14 12:47:41;;;;;;;9.07;3.50;;;21.50;99.90;;;;;;5098007;28;20457;-75
2022/05/14 12:50:18;;;;;;;6.47;3.07;;;21.50;99.90;;;;;;5097672;28;20927;-74
2022/05/14 12:52:54;;;;;;;5.83;3.17;;;21.30;99.90;;;;;;5097108;28;20441;-75
2022/05/14 12:55:24;;;;;;;5.00;3.23;;;21.20;99.90;;;;;;5097798;28;20530;-76
2022/05/14 12:57:51;;;;;;;8.97;3.40;;;21.10;99.90;;;;;;5097441;28;20467;-73
2022/05/14 13:00:20;;;;;;;4.27;2.83;;;20.90;99.90;;;;;;5097304;28;20530;-75
2022/05/14 13:02:53;;;;;;;4.40;2.83;;;20.80;99.90;;;;;;5097103;28;20464;-75
2022/05/14 13:05:21;;;;;;;8.50;3.50;;;20.70;99.90;;;;;;5096799;28;20738;-73
2022/05/14 13:07:50;;;;;;;6.07;3.30;;;21.00;99.90;;;;;;5097007;28;20519;-74
2022/05/14 13:10:22;;;;;;;5.33;2.90;;;21.30;99.90;;;;;;5097524;28;20464;-74
2022/05/14 13:12:53;;;;;;;7.73;3.27;;;21.40;99.90;;;;;;5097162;28;20473;-75
2022/05/14 13:15:21;;;;;;;10.10;5.53;;;21.30;99.90;;;;;;5097583;28;20728;-75
2022/05/14 13:17:47;;;;;;;11.10;3.43;;;21.30;99.90;;;;;;5097140;28;20461;-75
2022/05/14 13:20:20;;;;;;;7.47;3.50;;;21.40;99.90;;;;;;5097060;28;20460;-76
2022/05/14 13:22:47;;;;;;;9.10;2.83;;;21.80;99.90;;;;;;5096872;28;20447;-75